TFM - Tactical Decision Aid
ID: Runway Winds: CIG/VIS Threshold:

KMIA - Miami Intl, FL, US

Updated at: 0250 UTC 12 May 2021
Latest TAF at: 2320 UTC 11 May 2021

TAF Board

Time0153Z 12/03Z 12/04Z 12/05Z 12/06Z 12/07Z 12/08Z 12/09Z 12/10Z 12/11Z 12/12Z 12/13Z 12/14Z 12/15Z>>
Type OBS PRVL PRVL PRVL PRVL PRVL PRVL PRVL PRVL PRVL PRVL PRVL PRVL PRVL
VIS 10 >6 >6 >6 >6 >6 >6 >6 >6 >6 >6 >6 >6 >6
CIG -- -- -- -- -- -- -- -- -- -- -- -- -- --
Cover SCT SCT SCT SCT SCT SCT SCT SCT SCT SCT SCT SCT SCT SCT
FltCat VFR VFR VFR VFR VFR VFR VFR VFR VFR VFR VFR VFR VFR VFR
WX -- -- -- -- -- -- -- -- -- -- -- -- -- --
WDir 100 VRB VRB VRB VRB VRB VRB VRB VRB VRB VRB VRB 140 140
WSpd 9 3 3 3 3 3 3 3 3 3 3 3 10 10
WGst -- -- -- -- -- -- -- -- -- -- -- -- -- --

TDA Impact Legend

  None Marginal Slight Moderate High
Visibility (sm) >5 3≤X≤5 1≤X<3 0.5≤X<1 <0.5
Ceiling (100 ft) >30 10≤X≤30 4≤X<10 2≤X<4 <2
Wind Speed (kt) <15 15≤X<25 25≤X<30 ≥30
Wind Gust (kt) <15 15≤X<25 25≤X<35 ≥35
Weather No Wx Reported VCTS -TS,-FZRA TS,FZRA +TS,+FZRA
TAF
KMIA 112320Z 1200/1306 11008KT P6SM FEW030 FEW150
  FM120100 VRB03KT P6SM SCT250
  FM121400 14010KT P6SM FEW035 SCT150
  FM130100 VRB03KT P6SM FEW035


METAR
KMIA 120153Z 10009KT 10SM FEW025 SCT120 SCT250 28/23 A3007 RMK AO2 SLP184 T02780228 $
KMIA 120053Z 10010KT 10SM FEW025 FEW150 SCT250 28/23 A3005 RMK AO2 SLP175 T02780228 $
KMIA 112353Z 11010KT 10SM FEW028 FEW050 FEW150 BKN250 28/22 A3002 RMK AO2 SLP167 CB DSNT NW T02780222 10322 20278 53004 $

Radar Display
Forecast Discussion